Time;durP1;ratioP1;P1;durP2;ratioP2;P2;SDS_P1;SDS_P2;PMS_P1;PMS_P2;Temp;Humidity;BMP_temperature;BMP_pressure;BME280_temperature;BME280_humidity;BME280_pressure;Samples;Min_cycle;Max_cycle;Signal;HPM_P1;HPM_P2
2023/01/10 00:01:35;;;;;;;13.65;8.60;;;;;;;;;;4882649;29;20044;-90
2023/01/10 00:04:01;;;;;;;11.45;7.70;;;;;;;;;;4875415;29;20021;-90
2023/01/10 00:06:28;;;;;;;12.73;8.70;;;;;;;;;;4866007;29;20025;-90
2023/01/10 00:08:56;;;;;;;12.23;7.75;;;;;;;;;;4873871;29;20485;-91
2023/01/10 00:14:07;;;;;;;15.80;10.18;;;;;;;;;;4881299;29;20109;-91
2023/01/10 00:16:33;;;;;;;11.35;8.40;;;;;;;;;;4866013;29;20029;-92
2023/01/10 00:18:59;;;;;;;12.90;9.57;;;;;;;;;;4865846;29;20029;-91
2023/01/10 00:21:27;;;;;;;9.77;7.35;;;;;;;;;;4877553;29;20025;-91
2023/01/10 00:23:53;;;;;;;11.60;7.30;;;;;;;;;;4873176;29;20017;-91
2023/01/10 00:26:19;;;;;;;10.85;7.55;;;;;;;;;;4878124;29;20108;-91
2023/01/10 00:28:45;;;;;;;8.95;7.60;;;;;;;;;;4871135;29;20392;-92
2023/01/10 00:31:12;;;;;;;15.35;9.40;;;;;;;;;;4883848;29;20020;-89
2023/01/10 00:33:39;;;;;;;11.30;8.02;;;;;;;;;;4884638;29;20488;-95
2023/01/10 00:36:06;;;;;;;10.77;8.07;;;;;;;;;;4884604;29;20063;-95
2023/01/10 00:38:33;;;;;;;12.13;7.88;;;;;;;;;;4884236;29;20473;-94
2023/01/10 00:40:59;;;;;;;10.88;7.38;;;;;;;;;;4884745;29;20036;-95
2023/01/10 00:46:10;;;;;;;14.25;9.32;;;;;;;;;;4881181;29;20393;-94
2023/01/10 00:48:36;;;;;;;7.93;6.47;;;;;;;;;;4881142;29;20032;-95
2023/01/10 00:51:03;;;;;;;9.60;7.20;;;;;;;;;;4881198;29;20025;-94
2023/01/10 00:53:29;;;;;;;12.57;6.50;;;;;;;;;;4881182;29;20165;-95
2023/01/10 00:55:56;;;;;;;10.35;6.60;;;;;;;;;;4881269;29;20037;-95
2023/01/10 00:58:22;;;;;;;10.65;6.90;;;;;;;;;;4881390;29;20048;-94
2023/01/10 01:00:48;;;;;;;7.47;5.55;;;;;;;;;;4880635;29;20045;-96
2023/01/10 01:03:15;;;;;;;7.68;5.60;;;;;;;;;;4880887;29;20025;-96
2023/01/10 01:05:42;;;;;;;8.10;6.45;;;;;;;;;;4881077;29;20053;-94
2023/01/10 01:08:09;;;;;;;7.68;6.07;;;;;;;;;;4880626;29;20100;-96
2023/01/10 01:10:35;;;;;;;8.70;6.20;;;;;;;;;;4880588;29;20035;-94
2023/01/10 01:13:13;;;;;;;7.82;5.05;;;;;;;;;;4880298;29;20029;-95
2023/01/10 01:15:39;;;;;;;6.70;4.57;;;;;;;;;;4865098;29;20105;-96
2023/01/10 01:18:06;;;;;;;7.57;5.30;;;;;;;;;;4865257;29;20127;-95
2023/01/10 01:20:32;;;;;;;6.07;4.55;;;;;;;;;;4865071;29;20024;-93
2023/01/10 01:22:59;;;;;;;6.03;4.38;;;;;;;;;;4851123;29;20033;-95
2023/01/10 01:25:26;;;;;;;6.72;4.47;;;;;;;;;;4851469;29;20628;-95
2023/01/10 01:27:53;;;;;;;5.70;3.70;;;;;;;;;;4857487;29;20034;-94
2023/01/10 01:30:19;;;;;;;6.15;4.22;;;;;;;;;;4852431;29;20030;-94
2023/01/10 01:32:45;;;;;;;6.22;4.43;;;;;;;;;;4847628;29;20041;-95
2023/01/10 01:35:13;;;;;;;5.68;4.18;;;;;;;;;;4861367;29;20036;-93
2023/01/10 01:37:39;;;;;;;6.72;5.13;;;;;;;;;;4869606;29;20018;-92
2023/01/10 01:40:06;;;;;;;6.53;3.78;;;;;;;;;;4869599;29;20032;-93
2023/01/10 01:42:34;;;;;;;5.32;4.20;;;;;;;;;;4868119;29;20021;-95
2023/01/10 01:45:10;;;;;;;6.95;4.30;;;;;;;;;;4847618;29;20034;-95
2023/01/10 01:47:36;;;;;;;5.50;3.88;;;;;;;;;;4847200;29;20093;-95
2023/01/10 01:50:02;;;;;;;4.40;2.95;;;;;;;;;;4848232;29;20043;-95
2023/01/10 01:52:33;;;;;;;4.97;3.05;;;;;;;;;;4847755;29;20557;-95
2023/01/10 01:55:00;;;;;;;5.90;3.05;;;;;;;;;;4846145;29;20029;-96
2023/01/10 01:57:27;;;;;;;5.82;3.58;;;;;;;;;;4846216;29;20031;-96
2023/01/10 01:59:54;;;;;;;6.03;3.70;;;;;;;;;;4846220;29;20021;-94
2023/01/10 02:02:23;;;;;;;6.32;4.25;;;;;;;;;;4845990;29;20409;-96
2023/01/10 02:05:07;;;;;;;8.65;4.28;;;;;;;;;;4845935;29;20371;-96
2023/01/10 02:07:36;;;;;;;5.95;3.55;;;;;;;;;;4845933;29;20025;-95
2023/01/10 02:10:06;;;;;;;5.50;3.30;;;;;;;;;;4846025;29;20542;-95
2023/01/10 02:12:32;;;;;;;6.13;3.90;;;;;;;;;;4846000;29;20030;-96
2023/01/10 02:14:58;;;;;;;6.05;3.40;;;;;;;;;;4845869;29;20025;-95
2023/01/10 02:17:25;;;;;;;6.63;4.07;;;;;;;;;;4845861;29;20030;-95
2023/01/10 02:19:54;;;;;;;9.95;6.60;;;;;;;;;;4845965;29;20025;-96
2023/01/10 02:22:34;;;;;;;7.55;4.80;;;;;;;;;;4845863;29;20032;-95
2023/01/10 02:25:18;;;;;;;8.90;5.50;;;;;;;;;;4845706;29;20145;-96
2023/01/10 02:27:44;;;;;;;5.78;3.00;;;;;;;;;;4845770;29;20029;-96
2023/01/10 02:30:26;;;;;;;3.88;2.60;;;;;;;;;;4846093;29;20504;-94
2023/01/10 02:32:57;;;;;;;4.68;2.70;;;;;;;;;;4846295;29;20028;-96
2023/01/10 02:35:41;;;;;;;4.25;2.40;;;;;;;;;;4851400;29;20052;-95
2023/01/10 02:38:23;;;;;;;7.38;3.10;;;;;;;;;;4864442;29;20029;-96
2023/01/10 02:41:01;;;;;;;4.40;2.70;;;;;;;;;;4864387;29;20574;-95
2023/01/10 02:43:31;;;;;;;4.05;2.33;;;;;;;;;;4864332;29;20035;-95
2023/01/10 02:45:59;;;;;;;5.10;3.15;;;;;;;;;;4879977;29;20029;-95
2023/01/10 02:48:25;;;;;;;5.22;3.25;;;;;;;;;;4882300;29;20051;-95
2023/01/10 02:50:58;;;;;;;5.85;2.83;;;;;;;;;;4882579;29;20029;-94
2023/01/10 02:53:30;;;;;;;4.45;2.65;;;;;;;;;;4885179;29;20036;-95
2023/01/10 02:55:56;;;;;;;;;;;;;;;;;;4886627;29;20080;-96
2023/01/10 02:58:26;;;;;;;4.05;2.25;;;;;;;;;;4886156;29;20363;-95
2023/01/10 03:00:57;;;;;;;4.93;3.05;;;;;;;;;;4886274;29;20056;-94
2023/01/10 03:03:26;;;;;;;6.15;2.60;;;;;;;;;;4886297;29;20025;-95
2023/01/10 03:05:56;;;;;;;4.68;3.00;;;;;;;;;;4886308;29;20040;-96
2023/01/10 03:08:22;;;;;;;5.85;3.42;;;;;;;;;;4886772;29;20032;-96
2023/01/10 03:10:57;;;;;;;5.57;3.80;;;;;;;;;;4887062;29;20025;-95
2023/01/10 03:13:29;;;;;;;5.00;3.20;;;;;;;;;;4887231;29;20072;-95
2023/01/10 03:15:56;;;;;;;4.75;3.38;;;;;;;;;;4886731;29;20079;-96
2023/01/10 03:18:32;;;;;;;5.00;3.40;;;;;;;;;;4887077;29;20016;-95
2023/01/10 03:20:59;;;;;;;6.45;4.00;;;;;;;;;;4886756;29;20503;-94
2023/01/10 03:23:26;;;;;;;6.57;4.50;;;;;;;;;;4888088;29;20212;-96
2023/01/10 03:25:53;;;;;;;9.00;5.95;;;;;;;;;;4886454;29;20035;-95
2023/01/10 03:28:22;;;;;;;14.02;9.10;;;;;;;;;;4886948;29;20530;-95
2023/01/10 03:30:51;;;;;;;13.38;10.18;;;;;;;;;;4887513;29;20036;-94
2023/01/10 03:33:20;;;;;;;11.00;8.40;;;;;;;;;;4886737;29;20025;-96
2023/01/10 03:35:59;;;;;;;7.38;5.28;;;;;;;;;;4887266;29;20058;-95
2023/01/10 03:38:31;;;;;;;10.57;6.80;;;;;;;;;;4887198;29;20035;-95
2023/01/10 03:41:07;;;;;;;6.70;5.03;;;;;;;;;;4886670;29;20021;-96
2023/01/10 03:46:43;;;;;;;11.40;6.45;;;;;;;;;;4903072;29;20035;-94
2023/01/10 03:49:10;;;;;;;6.70;4.43;;;;;;;;;;4885804;29;20029;-94
2023/01/10 03:51:37;;;;;;;6.38;4.20;;;;;;;;;;4885451;29;20033;-96
2023/01/10 03:54:03;;;;;;;6.28;3.97;;;;;;;;;;4887907;29;20115;-95
2023/01/10 03:56:29;;;;;;;5.82;4.00;;;;;;;;;;4889114;29;20033;-95
2023/01/10 03:58:55;;;;;;;5.88;3.95;;;;;;;;;;4888740;29;20028;-96
2023/01/10 04:01:22;;;;;;;5.60;4.13;;;;;;;;;;4885136;29;20405;-95
2023/01/10 04:03:48;;;;;;;7.82;4.90;;;;;;;;;;4884041;29;20029;-95
2023/01/10 04:06:16;;;;;;;6.63;4.53;;;;;;;;;;4885101;29;20037;-95
2023/01/10 04:08:42;;;;;;;7.47;4.63;;;;;;;;;;4884846;29;20430;-95
2023/01/10 04:11:08;;;;;;;8.45;5.78;;;;;;;;;;4885454;29;20048;-95
2023/01/10 04:13:34;;;;;;;7.13;4.93;;;;;;;;;;4884797;29;20031;-96
2023/01/10 04:16:00;;;;;;;6.40;4.40;;;;;;;;;;4885403;29;20115;-96
2023/01/10 04:18:26;;;;;;;11.75;6.78;;;;;;;;;;4885214;29;20025;-96
2023/01/10 04:20:52;;;;;;;12.38;7.88;;;;;;;;;;4885243;29;20036;-95
2023/01/10 04:23:19;;;;;;;12.13;9.27;;;;;;;;;;4885016;29;20054;-96
2023/01/10 04:25:48;;;;;;;27.48;17.60;;;;;;;;;;4885126;29;20086;-95
2023/01/10 04:28:14;;;;;;;28.83;18.23;;;;;;;;;;4885005;29;20063;-94
2023/01/10 04:30:40;;;;;;;19.65;14.55;;;;;;;;;;4884820;29;20088;-95
2023/01/10 04:33:06;;;;;;;15.32;9.52;;;;;;;;;;4884702;29;20032;-94
2023/01/10 04:35:32;;;;;;;12.52;9.05;;;;;;;;;;4877889;29;20363;-95
2023/01/10 04:37:58;;;;;;;15.68;10.93;;;;;;;;;;4866008;29;20033;-95
2023/01/10 04:40:24;;;;;;;20.67;13.07;;;;;;;;;;4865980;29;20032;-94
2023/01/10 04:42:50;;;;;;;21.17;12.63;;;;;;;;;;4865814;29;20040;-94
2023/01/10 04:45:19;;;;;;;23.75;14.82;;;;;;;;;;4866232;29;20498;-95
2023/01/10 04:47:55;;;;;;;23.33;16.45;;;;;;;;;;4865818;29;20116;-95
2023/01/10 04:50:22;;;;;;;17.30;12.43;;;;;;;;;;4865812;29;20199;-95
2023/01/10 04:52:48;;;;;;;18.95;15.15;;;;;;;;;;4866047;29;20030;-96
2023/01/10 04:55:14;;;;;;;12.52;9.57;;;;;;;;;;4865677;29;20033;-95
2023/01/10 04:57:40;;;;;;;17.70;12.35;;;;;;;;;;4865560;29;20116;-94
2023/01/10 05:00:06;;;;;;;18.65;11.43;;;;;;;;;;4865515;29;20036;-96
2023/01/10 05:02:33;;;;;;;12.77;7.50;;;;;;;;;;4865572;29;20028;-95
2023/01/10 05:04:59;;;;;;;10.90;6.68;;;;;;;;;;4865740;29;20029;-94
2023/01/10 05:07:25;;;;;;;9.05;5.35;;;;;;;;;;4866034;29;20539;-94
2023/01/10 05:09:51;;;;;;;9.23;5.40;;;;;;;;;;4865733;29;20025;-94
2023/01/10 05:12:17;;;;;;;12.00;5.63;;;;;;;;;;4865516;29;20422;-95
2023/01/10 05:14:43;;;;;;;54.05;28.85;;;;;;;;;;4865120;29;20035;-95
2023/01/10 05:17:09;;;;;;;12.18;8.15;;;;;;;;;;4865365;29;20112;-95
2023/01/10 05:19:35;;;;;;;14.80;10.55;;;;;;;;;;4865302;29;20033;-96
2023/01/10 05:22:02;;;;;;;10.35;7.22;;;;;;;;;;4865261;29;20044;-95
2023/01/10 05:24:28;;;;;;;8.65;6.05;;;;;;;;;;4865632;29;20179;-95
2023/01/10 05:26:54;;;;;;;9.73;7.05;;;;;;;;;;4865358;29;20061;-95
2023/01/10 05:29:20;;;;;;;12.57;8.90;;;;;;;;;;4865251;29;20051;-95
2023/01/10 05:31:46;;;;;;;20.55;13.82;;;;;;;;;;4865069;29;20028;-95
2023/01/10 05:34:12;;;;;;;24.35;16.77;;;;;;;;;;4865391;29;20540;-95
2023/01/10 05:36:38;;;;;;;24.27;17.05;;;;;;;;;;4865275;29;20033;-94
2023/01/10 05:39:05;;;;;;;81.85;43.03;;;;;;;;;;4864907;29;20088;-94
2023/01/10 05:41:31;;;;;;;55.33;31.88;;;;;;;;;;4865047;29;20029;-95
2023/01/10 05:43:57;;;;;;;48.47;28.48;;;;;;;;;;4864959;29;20033;-95
2023/01/10 05:46:23;;;;;;;48.97;28.65;;;;;;;;;;4865075;29;20040;-95
2023/01/10 05:48:49;;;;;;;50.58;30.42;;;;;;;;;;4864766;29;20044;-96
2023/01/10 05:51:15;;;;;;;43.72;29.17;;;;;;;;;;4864889;29;20461;-95
2023/01/10 05:53:42;;;;;;;49.88;33.05;;;;;;;;;;4864903;29;20025;-95
2023/01/10 05:56:09;;;;;;;60.47;34.97;;;;;;;;;;4864954;29;20037;-96
2023/01/10 05:58:35;;;;;;;58.55;35.72;;;;;;;;;;4864853;29;20089;-95
2023/01/10 06:01:01;;;;;;;50.38;32.85;;;;;;;;;;4864530;29;20485;-96
2023/01/10 06:03:27;;;;;;;50.22;33.55;;;;;;;;;;4864907;29;20071;-95
2023/01/10 06:05:57;;;;;;;42.08;29.25;;;;;;;;;;4864627;29;20029;-95
2023/01/10 06:08:23;;;;;;;62.55;36.78;;;;;;;;;;4864575;29;20568;-94
2023/01/10 06:10:50;;;;;;;52.22;31.08;;;;;;;;;;4864658;29;20431;-95
2023/01/10 06:13:16;;;;;;;62.25;38.17;;;;;;;;;;4864615;29;20045;-95
2023/01/10 06:15:43;;;;;;;54.25;33.97;;;;;;;;;;4864390;29;20120;-95
2023/01/10 06:18:09;;;;;;;53.63;35.42;;;;;;;;;;4864527;29;20033;-94
2023/01/10 06:20:35;;;;;;;53.38;33.38;;;;;;;;;;4864655;29;20022;-96
2023/01/10 06:23:03;;;;;;;57.33;38.05;;;;;;;;;;4864399;29;20025;-94
2023/01/10 06:25:29;;;;;;;42.65;27.65;;;;;;;;;;4864662;29;20029;-95
2023/01/10 06:27:56;;;;;;;39.88;26.48;;;;;;;;;;4866288;29;20405;-95
2023/01/10 06:30:22;;;;;;;35.08;23.58;;;282.00;2278.40;;;;;;4868276;29;20021;-96
2023/01/10 06:32:48;;;;;;;39.70;23.13;;;281.80;2278.40;;;;;;4868055;29;20041;-95
2023/01/10 06:35:14;;;;;;;31.92;22.00;;;;;;;;;;4868119;29;20035;-95
2023/01/10 06:37:40;;;;;;;34.90;22.70;;;;;;;;;;4868098;29;20489;-94
2023/01/10 06:40:06;;;;;;;45.03;29.17;;;;;;;;;;4868241;29;20036;-95
2023/01/10 06:42:32;;;;;;;40.72;28.15;;;;;;;;;;4868051;29;20029;-95
2023/01/10 06:44:58;;;;;;;61.28;37.40;;;;;;;;;;4868872;29;20021;-95
2023/01/10 06:47:24;;;;;;;55.45;37.10;;;;;;;;;;4868233;29;20025;-94
2023/01/10 06:49:50;;;;;;;57.55;37.15;;;;;;;;;;4868234;29;20048;-95
2023/01/10 06:52:17;;;;;;;66.32;41.47;;;;;;;;;;4868218;29;20025;-94
2023/01/10 06:54:43;;;;;;;64.60;41.67;;;;;;;;;;4868045;29;20025;-93
2023/01/10 06:57:10;;;;;;;73.90;45.45;;;;;;;;;;4867805;29;20401;-95
2023/01/10 06:59:36;;;;;;;110.30;59.95;;;;;;;;;;4867935;29;20037;-94
2023/01/10 07:02:02;;;;;;;148.23;73.78;;;;;;;;;;4867662;29;20493;-95
2023/01/10 07:04:28;;;;;;;123.47;70.18;;;;;;;;;;4867732;29;20025;-94
2023/01/10 07:06:54;;;;;;;112.22;65.93;;;;;;;;;;4867807;29;20036;-94
2023/01/10 07:09:20;;;;;;;122.20;77.05;;;;;;;;;;4867413;29;20035;-94
2023/01/10 07:11:46;;;;;;;125.57;80.80;;;;;;;;;;4867555;29;20032;-95
2023/01/10 07:14:12;;;;;;;147.32;96.63;;;;;;;;;;4867398;29;20017;-94
2023/01/10 07:16:38;;;;;;;109.22;71.78;;;;;;;;;;4881219;29;20032;-95
2023/01/10 07:19:04;;;;;;;98.22;63.28;;;;;;;;;;4886072;29;20067;-94
2023/01/10 07:21:32;;;;;;;92.30;60.08;;;;;;;;;;4886038;29;20147;-94
2023/01/10 07:23:58;;;;;;;79.43;54.22;;;;;;;;;;4885974;29;20040;-95
2023/01/10 07:26:24;;;;;;;95.93;60.33;;;;;;;;;;4886017;29;20029;-94
2023/01/10 07:28:50;;;;;;;91.10;56.42;;;;;;;;;;4886121;29;20060;-93
2023/01/10 07:31:17;;;;;;;80.15;52.67;;;;;;;;;;4885840;29;20115;-95
2023/01/10 07:33:44;;;;;;;78.05;50.65;;;;;;;;;;4885944;29;20025;-94
2023/01/10 07:36:10;;;;;;;112.07;69.47;;;;;;;;;;4885617;29;20040;-94
2023/01/10 07:38:36;;;;;;;83.28;54.47;;;;;;;;;;4885693;29;20084;-95
2023/01/10 07:41:03;;;;;;;80.65;50.58;;;;;;;;;;4885879;29;20465;-95
2023/01/10 07:43:29;;;;;;;64.65;41.60;;;;;;;;;;4884902;29;20115;-94
2023/01/10 07:45:57;;;;;;;57.42;36.35;;;;;;;;;;4882655;29;20025;-95
2023/01/10 07:48:24;;;;;;;70.40;41.33;;;;;;;;;;4882605;29;20025;-95
2023/01/10 07:50:50;;;;;;;97.13;53.78;;;;;;;;;;4882308;29;20017;-94
2023/01/10 07:53:16;;;;;;;63.45;42.03;;;;;;;;;;4882380;29;20073;-93
2023/01/10 07:55:44;;;;;;;63.17;40.10;;;;;;;;;;4882660;29;20062;-95
2023/01/10 07:58:10;;;;;;;47.83;30.42;;;;;;;;;;4882343;29;20025;-95
2023/01/10 08:00:36;;;;;;;48.58;30.95;;;;;;;;;;4882159;29;20081;-94
2023/01/10 08:03:03;;;;;;;50.78;31.65;;;;;;;;;;4882343;29;20061;-92
2023/01/10 08:05:29;;;;;;;66.80;39.20;;;;;;;;;;4882298;29;20057;-94
2023/01/10 08:07:58;;;;;;;55.03;34.60;;;;;;;;;;4882109;29;20460;-92
2023/01/10 08:10:25;;;;;;;65.20;40.83;;;;;;;;;;4882360;29;20431;-93
2023/01/10 08:12:51;;;;;;;61.58;39.58;;;;;;;;;;4881803;29;20028;-92
2023/01/10 08:15:17;;;;;;;74.32;48.63;;;;;;;;;;4881963;29;20048;-93
2023/01/10 08:17:43;;;;;;;75.57;48.85;;;;;;;;;;4882086;29;20120;-93
2023/01/10 08:20:09;;;;;;;67.97;43.08;;;;;;;;;;4899206;29;20373;-93
2023/01/10 08:22:36;;;;;;;64.32;41.38;;;;;;;;;;4884344;29;20051;-96
2023/01/10 08:25:02;;;;;;;72.95;45.95;;;;;;;;;;4885073;29;20441;-91
2023/01/10 08:27:28;;;;;;;95.40;48.15;;;;;;;;;;4884681;29;20029;-90
2023/01/10 08:29:54;;;;;;;96.50;53.35;;;;;;;;;;4884954;29;20127;-92
2023/01/10 08:32:21;;;;;;;81.47;47.42;;;;;;;;;;4884595;29;20032;-94
2023/01/10 08:34:47;;;;;;;90.63;54.13;;;;;;;;;;4885180;29;20120;-93
2023/01/10 08:37:13;;;;;;;90.35;53.38;;;;;;;;;;4884663;29;20064;-91
2023/01/10 08:39:40;;;;;;;99.78;55.15;;;;;;;;;;4884350;29;20041;-91
2023/01/10 08:42:06;;;;;;;113.15;63.10;;;;;;;;;;4884863;29;20103;-92
2023/01/10 08:44:32;;;;;;;110.75;64.57;;;;;;;;;;4884492;29;20020;-93
2023/01/10 08:46:58;;;;;;;74.45;47.28;;;;;;;;;;4884352;29;20048;-94
2023/01/10 08:49:24;;;;;;;59.38;40.17;;;;;;;;;;4884143;29;20036;-92
2023/01/10 08:51:50;;;;;;;64.00;41.85;;;;;;;;;;4884454;29;20033;-91
2023/01/10 08:54:16;;;;;;;68.82;42.17;;;;;;;;;;4884382;29;20091;-91
2023/01/10 08:56:42;;;;;;;81.60;49.00;;;;;;;;;;4897585;29;20020;-92
2023/01/10 08:59:09;;;;;;;85.20;46.95;;;;;;;;;;4897290;29;20037;-91
2023/01/10 09:01:35;;;;;;;103.10;57.08;;;;;;;;;;4895275;29;20071;-91
2023/01/10 09:04:01;;;;;;;101.35;55.83;;;;;;;;;;4893374;29;20137;-92
2023/01/10 09:06:28;;;;;;;117.22;64.22;;;;;;;;;;4886869;29;20065;-92
2023/01/10 09:08:54;;;;;;;135.60;76.75;;;;;;;;;;4873349;29;20061;-92
2023/01/10 09:11:20;;;;;;;116.03;70.40;;;;;;;;;;4875498;29;20029;-92
2023/01/10 09:13:49;;;;;;;108.80;72.20;;;;;;;;;;4865643;29;20033;-95
2023/01/10 09:16:15;;;;;;;96.28;61.88;;;;;;;;;;4871376;29;20071;-88
2023/01/10 09:18:41;;;;;;;62.45;41.17;;;;;;;;;;4876655;29;20028;-92
2023/01/10 09:21:07;;;;;;;50.63;33.90;;;;;;;;;;4874921;29;20029;-91
2023/01/10 09:23:34;;;;;;;66.10;42.55;;;;;;;;;;4872511;29;20025;-92
2023/01/10 09:26:01;;;;;;;77.22;49.75;;;;;;;;;;4868553;29;20112;-93
2023/01/10 09:28:27;;;;;;;83.80;52.63;;;;;;;;;;4881447;29;20059;-89
2023/01/10 09:30:54;;;;;;;101.00;64.40;;;;;;;;;;4876032;29;20028;-93
2023/01/10 09:33:20;;;;;;;101.80;63.80;;;;;;;;;;4872568;29;20078;-93
2023/01/10 09:35:46;;;;;;;126.32;82.22;;;;;;;;;;4876392;29;20174;-92
2023/01/10 09:38:14;;;;;;;112.82;75.07;;;;;;;;;;4873325;29;20033;-92
2023/01/10 09:40:59;;;;;;;95.07;67.43;;;;;;;;;;4867830;29;20025;-92
2023/01/10 09:46:39;;;;;;;48.25;33.47;;;;;;;;;;4860956;29;20104;-92
2023/01/10 09:49:05;;;;;;;50.97;37.60;;;;;;;;;;4871777;29;20032;-93
2023/01/10 09:51:41;;;;;;;50.45;33.17;;;;;;;;;;4873473;29;20481;-94
2023/01/10 09:54:13;;;;;;;57.03;40.80;;;;;;;;;;4878735;29;20073;-93
2023/01/10 09:56:40;;;;;;;61.10;42.33;;;;;;;;;;4874491;29;20116;-94
2023/01/10 09:59:06;;;;;;;54.55;36.83;;;;;;;;;;4875817;29;20033;-92
2023/01/10 10:01:36;;;;;;;38.13;26.77;;;;;;;;;;4866460;29;20064;-92
2023/01/10 10:04:11;;;;;;;31.25;22.90;;;;;;;;;;4869565;29;20029;-93
2023/01/10 10:06:37;;;;;;;32.60;22.70;;;;;;;;;;4869339;29;20029;-93
2023/01/10 10:09:04;;;;;;;31.90;22.20;;;;;;;;;;4879930;29;20021;-90
2023/01/10 10:11:37;;;;;;;34.33;21.23;;;;;;;;;;4879959;29;20111;-92
2023/01/10 10:14:03;;;;;;;39.72;24.80;;;;;;;;;;4880067;29;20025;-92
2023/01/10 10:16:38;;;;;;;49.40;31.15;;;;;;;;;;4880080;29;20029;-90
2023/01/10 10:19:04;;;;;;;43.83;26.65;;;;;;;;;;4880016;29;20033;-92
2023/01/10 10:21:49;;;;;;;72.57;42.10;;;;;;;;;;4881140;29;20545;-92
2023/01/10 10:24:33;;;;;;;37.63;23.67;;;;;;;;;;4880857;29;20073;-89
2023/01/10 10:27:08;;;;;;;35.45;24.08;;;;;;;;;;4879548;29;20032;-87
2023/01/10 10:29:34;;;;;;;39.20;26.13;;;;;;;;;;4879458;29;20025;-88
2023/01/10 10:32:00;;;;;;;26.83;17.98;;;;;;;;;;4879357;29;20526;-86
2023/01/10 10:34:39;;;;;;;20.30;14.23;;;;;;;;;;4878897;29;20117;-86
2023/01/10 10:37:16;;;;;;;23.83;15.93;;;;;;;;;;4879263;29;20037;-91
2023/01/10 10:39:45;;;;;;;17.15;12.27;;;;;;;;;;4879075;29;20029;-88
2023/01/10 10:42:12;;;;;;;15.02;9.68;;;;;;;;;;4880027;29;20033;-87
2023/01/10 10:44:41;;;;;;;18.23;12.23;;;;;;;;;;4870925;29;20090;-87
2023/01/10 10:47:18;;;;;;;17.25;10.63;;;;;;;;;;4879483;29;20025;-89
2023/01/10 10:49:58;;;;;;;17.35;11.48;;;;;;;;;;4865155;29;20036;-92
2023/01/10 10:52:25;;;;;;;25.17;15.75;;;;;;;;;;4866411;29;20026;-92
2023/01/10 10:54:52;;;;;;;24.55;13.95;;;;;;;;;;4868765;29;20366;-90
2023/01/10 10:57:21;;;;;;;27.10;16.52;;;;;;;;;;4872319;29;20474;-90
2023/01/10 10:59:48;;;;;;;19.33;11.38;;;;;;;;;;4873142;29;20033;-86
2023/01/10 11:02:37;;;;;;;45.70;29.90;;;;;;;;;;4882535;29;20075;-86
2023/01/10 11:05:04;;;;;;;74.38;59.85;;;;;;;;;;4881430;29;20025;-87
2023/01/10 11:07:36;;;;;;;49.67;37.00;;;;;;;;;;4881779;29;20472;-88
2023/01/10 11:12:49;;;;;;;39.55;26.45;;;;;;;;;;4898556;29;20060;-83
2023/01/10 11:15:34;;;;;;;21.30;15.98;;;;;;;;;;4884878;29;20063;-87
2023/01/10 11:18:07;;;;;;;16.40;9.60;;;;;;;;;;4885978;29;20024;-94
2023/01/10 11:20:33;;;;;;;11.02;7.60;;;;;;;;;;4885967;29;20178;-91
2023/01/10 11:23:00;;;;;;;34.35;21.05;;;;;;;;;;4885864;29;20029;-91
2023/01/10 11:25:26;;;;;;;24.45;16.40;;;230.50;2252.80;;;;;;4885693;29;20025;-90
2023/01/10 11:27:59;;;;;;;21.65;12.63;;;205.70;2252.80;;;;;;4885788;29;20029;-92
2023/01/10 11:30:35;;;;;;;13.15;7.22;;;;;;;;;;4885886;29;20041;-91
2023/01/10 11:33:02;;;;;;;15.23;9.82;;;;;;;;;;4885780;29;20032;-91
2023/01/10 11:35:31;;;;;;;12.73;8.77;;;;;;;;;;4881838;29;20034;-91
2023/01/10 11:38:17;;;;;;;20.77;12.63;;;;;;;;;;4885549;29;20036;-91
2023/01/10 11:41:00;;;;;;;17.17;10.98;;;;;;;;;;4884558;29;20024;-92
2023/01/10 11:43:33;;;;;;;14.93;9.52;;;;;;;;;;4883682;29;20054;-89
2023/01/10 11:46:01;;;;;;;;;;;;;;;;;;4866270;29;20044;-87
2023/01/10 11:48:39;;;;;;;11.43;6.68;;;;;;;;;;4883510;29;19923;-92
2023/01/10 11:51:05;;;;;;;17.65;9.10;;;;;;;;;;4885146;29;20021;-93
2023/01/10 11:53:42;;;;;;;14.88;9.70;;;;;;;;;;4885459;29;20024;-91
2023/01/10 11:56:13;;;;;;;13.65;9.48;;;;;;;;;;4885353;29;20481;-93
2023/01/10 11:58:40;;;;;;;6.97;5.05;;;;;;;;;;4885176;29;20453;-95
2023/01/10 12:01:06;;;;;;;14.35;8.57;;;;;;;;;;4881946;29;20053;-92
2023/01/10 12:03:35;;;;;;;13.43;8.75;;;;;;;;;;4881472;29;20021;-93
2023/01/10 12:06:03;;;;;;;16.17;10.82;;;;;;;;;;4881730;29;20060;-92
2023/01/10 12:08:31;;;;;;;16.45;9.13;;;;;;;;;;4882146;29;20064;-91
2023/01/10 12:11:02;;;;;;;10.75;6.65;;;;;;;;;;4881610;29;20052;-90
2023/01/10 12:13:29;;;;;;;12.07;7.70;;;;;;;;;;4882732;29;20432;-92
2023/01/10 12:16:14;;;;;;;10.43;8.15;;;;;;;;;;4881968;29;20033;-91
2023/01/10 12:18:40;;;;;;;11.48;7.53;;;;;;;;;;4874121;29;20113;-93
2023/01/10 12:21:08;;;;;;;9.60;6.85;;;205.40;2252.80;;;;;;4864657;29;20436;-92
2023/01/10 12:23:40;;;;;;;11.73;7.93;;;205.20;2252.80;;;;;;4844716;29;20082;-92
2023/01/10 12:26:11;;;;;;;13.55;8.57;;;205.10;2252.80;;;;;;4844013;29;20030;-93
2023/01/10 12:28:39;;;;;;;20.27;13.18;;;;;;;;;;4844729;29;20053;-93
2023/01/10 12:31:11;;;;;;;18.05;12.70;;;;;;;;;;4845430;29;20033;-90
2023/01/10 12:33:45;;;;;;;18.40;12.20;;;;;;;;;;4844548;29;20089;-94
2023/01/10 12:36:34;;;;;;;21.63;14.48;;;;;;;;;;4844689;29;20045;-94
2023/01/10 12:39:18;;;;;;;21.45;14.80;;;;;;;;;;4844308;29;20026;-95
2023/01/10 12:44:40;;;;;;;16.85;11.95;;;;;;;;;;4845338;29;20110;-90
2023/01/10 12:47:24;;;;;;;17.92;11.60;;;205.10;2252.80;;;;;;4844474;29;20034;-93
2023/01/10 12:50:02;;;;;;;16.20;10.00;;;205.10;2252.80;;;;;;4869797;29;20040;-93
2023/01/10 12:52:44;;;;;;;11.10;7.00;;;204.90;2252.80;;;;;;4880449;29;20127;-92
2023/01/10 12:55:22;;;;;;;9.27;6.63;;;204.80;2252.80;;;;;;4843526;29;20033;-92
2023/01/10 12:57:57;;;;;;;12.65;7.72;;;180.10;2252.80;;;;;;4868603;29;20034;-91
2023/01/10 13:00:32;;;;;;;12.80;6.78;;;180.00;2252.80;;;;;;4875070;29;20628;-95
2023/01/10 13:02:59;;;;;;;15.18;9.60;;;179.90;2252.80;;;;;;4880259;29;20031;-87
2023/01/10 13:05:28;;;;;;;13.63;10.48;;;;;;;;;;4869045;29;20021;-88
2023/01/10 13:07:57;;;;;;;13.85;8.32;;;;;;;;;;4860800;29;20040;-90
2023/01/10 13:10:24;;;;;;;13.82;8.80;;;;;;;;;;4862073;29;20538;-94
2023/01/10 13:12:56;;;;;;;16.58;10.32;;;;;;;;;;4862205;29;20026;-92
2023/01/10 13:15:26;;;;;;;15.98;9.95;;;;;;;;;;4862053;29;20439;-93
2023/01/10 13:18:01;;;;;;;18.65;9.02;;;;;;;;;;4862207;29;20045;-93
2023/01/10 13:20:40;;;;;;;17.45;11.27;;;;;;;;;;4862150;29;20383;-93
2023/01/10 13:23:14;;;;;;;36.47;25.35;;;;;;;;;;4864147;29;20085;-93
2023/01/10 13:25:41;;;;;;;20.80;15.02;;;;;;;;;;4861883;29;20113;-92
2023/01/10 13:28:17;;;;;;;21.35;13.23;;;;;;;;;;4866394;29;20393;-91
2023/01/10 13:30:44;;;;;;;20.80;15.02;;;;;;;;;;4877495;29;20438;-93
2023/01/10 13:33:21;;;;;;;25.38;16.23;;;;;;;;;;4874962;29;20144;-93
2023/01/10 13:35:48;;;;;;;24.00;15.25;;;;;;;;;;4858327;29;20452;-93
2023/01/10 13:38:50;;;;;;;21.90;13.93;;;;;;;;;;4858569;29;20082;-92
2023/01/10 13:44:03;;;;;;;28.05;17.80;;;;;;;;;;4872770;29;20108;-93
2023/01/10 13:46:29;;;;;;;28.48;18.90;;;;;;;;;;4880109;29;20035;-93
2023/01/10 13:48:59;;;;;;;26.83;17.67;;;;;;;;;;4872181;29;20113;-93
2023/01/10 13:51:25;;;;;;;30.27;17.65;;;;;;;;;;4862129;29;20122;-93
2023/01/10 13:54:01;;;;;;;35.47;22.15;;;;;;;;;;4876512;29;20041;-93
2023/01/10 13:56:47;;;;;;;45.45;29.30;;;;;;;;;;4872714;29;20124;-94
2023/01/10 14:02:30;;;;;;;41.53;30.25;;;;;;;;;;4878485;29;20067;-89
2023/01/10 14:05:00;;;;;;;66.53;42.20;;;;;;;;;;4864264;29;20033;-92
2023/01/10 14:07:29;;;;;;;86.15;52.22;;;;;;;;;;4864381;29;20089;-94
2023/01/10 14:10:01;;;;;;;74.82;48.08;;;;;;;;;;4864246;29;20033;-92
2023/01/10 14:12:34;;;;;;;31.75;22.30;;;;;;;;;;4872475;29;20029;-94
2023/01/10 14:15:19;;;;;;;17.67;11.73;;;;;;;;;;4875045;29;20043;-93
2023/01/10 14:17:53;;;;;;;82.00;20.83;;;;;;;;;;4876524;29;20034;-93
2023/01/10 14:20:25;;;;;;;56.72;13.93;;;;;;;;;;4861317;29;20482;-93
2023/01/10 14:23:09;;;;;;;28.45;9.15;;;;;;;;;;4862436;29;20049;-93
2023/01/10 14:26:00;;;;;;;13.95;8.27;;;180.10;2252.80;;;;;;4861069;29;20033;-94
2023/01/10 14:28:31;;;;;;;24.00;14.88;;;;;;;;;;4876775;29;20578;-92
2023/01/10 14:31:00;;;;;;;22.77;12.02;;;;;;;;;;4860909;29;20026;-91
2023/01/10 14:33:27;;;;;;;18.65;11.85;;;;;;;;;;4860621;29;20037;-89
2023/01/10 14:36:17;;;;;;;17.33;11.45;;;;;;;;;;4861269;29;20037;-93
2023/01/10 14:38:47;;;;;;;9.77;6.82;;;;;;;;;;4862010;29;20057;-93
2023/01/10 14:41:14;;;;;;;16.83;9.77;;;;;;;;;;4863237;29;20030;-94
2023/01/10 14:44:17;;;;;;;14.48;8.93;;;180.00;2252.80;;;;;;4894355;29;20120;-94
2023/01/10 14:46:48;;;;;;;19.13;13.65;;;179.70;2252.80;;;;;;4880587;29;20047;-95
2023/01/10 14:49:57;;;;;;;12.10;8.40;;;179.70;2252.80;;;;;;4882651;29;20446;-93
2023/01/10 14:52:33;;;;;;;15.85;8.98;;;179.70;2252.80;;;;;;4853421;29;20032;-95